sensor_id;sensor_type;location;lat;lon;timestamp;P1;durP1;ratioP1;P2;durP2;ratioP2
2320;SDS011;15376;48.540;9.268;2023-04-29T00:00:17;8.03;;;6.47;;
2320;SDS011;15376;48.540;9.268;2023-04-29T00:02:42;7.53;;;6.90;;
2320;SDS011;15376;48.540;9.268;2023-04-29T00:05:08;7.47;;;6.87;;
2320;SDS011;15376;48.540;9.268;2023-04-29T00:07:34;11.87;;;8.00;;
2320;SDS011;15376;48.540;9.268;2023-04-29T00:10:00;6.80;;;6.20;;
2320;SDS011;15376;48.540;9.268;2023-04-29T00:12:26;8.37;;;7.47;;
2320;SDS011;15376;48.540;9.268;2023-04-29T00:14:52;8.80;;;7.93;;
2320;SDS011;15376;48.540;9.268;2023-04-29T00:17:17;7.93;;;7.10;;
2320;SDS011;15376;48.540;9.268;2023-04-29T00:19:43;8.60;;;7.77;;
2320;SDS011;15376;48.540;9.268;2023-04-29T00:22:09;8.10;;;7.40;;
2320;SDS011;15376;48.540;9.268;2023-04-29T00:24:34;6.50;;;5.90;;
2320;SDS011;15376;48.540;9.268;2023-04-29T00:27:00;6.20;;;5.67;;
2320;SDS011;15376;48.540;9.268;2023-04-29T00:29:26;5.20;;;4.80;;
2320;SDS011;15376;48.540;9.268;2023-04-29T00:31:52;6.97;;;6.40;;
2320;SDS011;15376;48.540;9.268;2023-04-29T00:34:17;5.47;;;4.83;;
2320;SDS011;15376;48.540;9.268;2023-04-29T00:36:43;5.13;;;4.77;;
2320;SDS011;15376;48.540;9.268;2023-04-29T00:39:08;5.60;;;5.10;;
2320;SDS011;15376;48.540;9.268;2023-04-29T00:41:33;5.97;;;5.53;;
2320;SDS011;15376;48.540;9.268;2023-04-29T00:43:59;5.50;;;5.10;;
2320;SDS011;15376;48.540;9.268;2023-04-29T00:46:25;6.27;;;5.67;;
2320;SDS011;15376;48.540;9.268;2023-04-29T00:48:51;6.27;;;5.67;;
2320;SDS011;15376;48.540;9.268;2023-04-29T00:51:16;7.53;;;6.27;;
2320;SDS011;15376;48.540;9.268;2023-04-29T00:53:42;5.77;;;5.37;;
2320;SDS011;15376;48.540;9.268;2023-04-29T00:56:08;6.30;;;5.00;;
2320;SDS011;15376;48.540;9.268;2023-04-29T00:58:34;6.87;;;6.27;;
2320;SDS011;15376;48.540;9.268;2023-04-29T01:01:00;7.93;;;6.97;;
2320;SDS011;15376;48.540;9.268;2023-04-29T01:03:29;7.40;;;6.80;;
2320;SDS011;15376;48.540;9.268;2023-04-29T01:06:19;7.97;;;7.27;;
2320;SDS011;15376;48.540;9.268;2023-04-29T01:11:25;8.63;;;7.83;;
2320;SDS011;15376;48.540;9.268;2023-04-29T01:13:58;8.20;;;7.40;;
2320;SDS011;15376;48.540;9.268;2023-04-29T01:16:29;8.30;;;7.50;;
2320;SDS011;15376;48.540;9.268;2023-04-29T01:19:01;7.97;;;6.60;;
2320;SDS011;15376;48.540;9.268;2023-04-29T01:21:31;8.43;;;7.67;;
2320;SDS011;15376;48.540;9.268;2023-04-29T01:23:56;8.17;;;7.37;;
2320;SDS011;15376;48.540;9.268;2023-04-29T01:26:22;11.73;;;7.43;;
2320;SDS011;15376;48.540;9.268;2023-04-29T01:31:50;8.50;;;7.70;;
2320;SDS011;15376;48.540;9.268;2023-04-29T01:34:30;9.10;;;8.00;;
2320;SDS011;15376;48.540;9.268;2023-04-29T01:39:45;8.13;;;7.33;;
2320;SDS011;15376;48.540;9.268;2023-04-29T01:42:21;8.63;;;7.83;;
2320;SDS011;15376;48.540;9.268;2023-04-29T01:44:54;8.43;;;7.70;;
2320;SDS011;15376;48.540;9.268;2023-04-29T01:47:21;8.90;;;8.00;;
2320;SDS011;15376;48.540;9.268;2023-04-29T01:49:47;7.83;;;7.13;;
2320;SDS011;15376;48.540;9.268;2023-04-29T01:52:13;10.10;;;7.53;;
2320;SDS011;15376;48.540;9.268;2023-04-29T01:54:39;9.00;;;7.50;;
2320;SDS011;15376;48.540;9.268;2023-04-29T01:57:04;7.80;;;7.07;;
2320;SDS011;15376;48.540;9.268;2023-04-29T01:59:29;8.03;;;7.33;;
2320;SDS011;15376;48.540;9.268;2023-04-29T02:01:55;8.20;;;7.50;;
2320;SDS011;15376;48.540;9.268;2023-04-29T02:04:22;8.27;;;7.53;;
2320;SDS011;15376;48.540;9.268;2023-04-29T02:06:49;8.90;;;7.30;;
2320;SDS011;15376;48.540;9.268;2023-04-29T02:09:14;8.30;;;7.60;;
2320;SDS011;15376;48.540;9.268;2023-04-29T02:11:40;7.67;;;6.97;;
2320;SDS011;15376;48.540;9.268;2023-04-29T02:14:06;7.80;;;7.17;;
2320;SDS011;15376;48.540;9.268;2023-04-29T02:16:31;8.57;;;7.77;;
2320;SDS011;15376;48.540;9.268;2023-04-29T02:18:56;7.77;;;7.07;;
2320;SDS011;15376;48.540;9.268;2023-04-29T02:21:22;7.60;;;6.83;;
2320;SDS011;15376;48.540;9.268;2023-04-29T02:23:47;8.07;;;7.37;;
2320;SDS011;15376;48.540;9.268;2023-04-29T02:26:13;10.43;;;7.70;;
2320;SDS011;15376;48.540;9.268;2023-04-29T02:28:39;7.57;;;6.77;;
2320;SDS011;15376;48.540;9.268;2023-04-29T02:31:04;6.30;;;5.80;;
2320;SDS011;15376;48.540;9.268;2023-04-29T02:33:30;9.13;;;7.77;;
2320;SDS011;15376;48.540;9.268;2023-04-29T02:35:56;10.30;;;9.30;;
2320;SDS011;15376;48.540;9.268;2023-04-29T02:38:23;9.13;;;8.33;;
2320;SDS011;15376;48.540;9.268;2023-04-29T02:40:49;9.43;;;8.57;;
2320;SDS011;15376;48.540;9.268;2023-04-29T02:43:14;8.70;;;7.90;;
2320;SDS011;15376;48.540;9.268;2023-04-29T02:45:39;8.63;;;7.83;;
2320;SDS011;15376;48.540;9.268;2023-04-29T02:48:05;10.03;;;9.00;;
2320;SDS011;15376;48.540;9.268;2023-04-29T02:50:30;10.87;;;7.33;;
2320;SDS011;15376;48.540;9.268;2023-04-29T02:52:56;9.67;;;7.93;;
2320;SDS011;15376;48.540;9.268;2023-04-29T02:55:22;8.47;;;7.70;;
2320;SDS011;15376;48.540;9.268;2023-04-29T02:57:47;8.87;;;8.07;;
2320;SDS011;15376;48.540;9.268;2023-04-29T03:00:13;5.83;;;5.37;;
2320;SDS011;15376;48.540;9.268;2023-04-29T03:02:38;6.30;;;5.80;;
2320;SDS011;15376;48.540;9.268;2023-04-29T03:05:04;7.37;;;6.67;;
2320;SDS011;15376;48.540;9.268;2023-04-29T03:07:30;7.63;;;6.90;;
2320;SDS011;15376;48.540;9.268;2023-04-29T03:09:56;8.03;;;7.10;;
2320;SDS011;15376;48.540;9.268;2023-04-29T03:12:21;6.43;;;5.93;;
2320;SDS011;15376;48.540;9.268;2023-04-29T03:14:47;6.47;;;5.97;;
2320;SDS011;15376;48.540;9.268;2023-04-29T03:17:12;5.63;;;5.10;;
2320;SDS011;15376;48.540;9.268;2023-04-29T03:19:38;6.43;;;5.80;;
2320;SDS011;15376;48.540;9.268;2023-04-29T03:22:03;4.73;;;4.43;;
2320;SDS011;15376;48.540;9.268;2023-04-29T03:24:29;8.80;;;6.97;;
2320;SDS011;15376;48.540;9.268;2023-04-29T03:26:54;8.93;;;8.13;;
2320;SDS011;15376;48.540;9.268;2023-04-29T03:29:20;9.50;;;7.50;;
2320;SDS011;15376;48.540;9.268;2023-04-29T03:31:48;9.90;;;8.60;;
2320;SDS011;15376;48.540;9.268;2023-04-29T03:34:13;8.27;;;7.57;;
2320;SDS011;15376;48.540;9.268;2023-04-29T03:36:39;7.83;;;7.13;;
2320;SDS011;15376;48.540;9.268;2023-04-29T03:39:04;8.00;;;7.27;;
2320;SDS011;15376;48.540;9.268;2023-04-29T03:41:30;7.97;;;7.30;;
2320;SDS011;15376;48.540;9.268;2023-04-29T03:43:55;8.17;;;7.47;;
2320;SDS011;15376;48.540;9.268;2023-04-29T03:46:25;9.30;;;8.30;;
2320;SDS011;15376;48.540;9.268;2023-04-29T03:48:50;8.83;;;7.90;;
2320;SDS011;15376;48.540;9.268;2023-04-29T03:51:16;8.83;;;8.10;;
2320;SDS011;15376;48.540;9.268;2023-04-29T03:53:42;7.30;;;6.60;;
2320;SDS011;15376;48.540;9.268;2023-04-29T03:56:08;9.60;;;6.93;;
2320;SDS011;15376;48.540;9.268;2023-04-29T03:58:33;7.97;;;7.27;;
2320;SDS011;15376;48.540;9.268;2023-04-29T04:00:58;7.80;;;7.20;;
2320;SDS011;15376;48.540;9.268;2023-04-29T04:03:24;8.70;;;7.10;;
2320;SDS011;15376;48.540;9.268;2023-04-29T04:05:51;9.83;;;5.57;;
2320;SDS011;15376;48.540;9.268;2023-04-29T04:08:16;6.90;;;6.30;;
2320;SDS011;15376;48.540;9.268;2023-04-29T04:10:42;6.43;;;5.70;;
2320;SDS011;15376;48.540;9.268;2023-04-29T04:13:08;5.43;;;4.93;;
2320;SDS011;15376;48.540;9.268;2023-04-29T04:15:33;7.90;;;6.00;;
2320;SDS011;15376;48.540;9.268;2023-04-29T04:17:59;8.20;;;5.70;;
2320;SDS011;15376;48.540;9.268;2023-04-29T04:20:25;7.70;;;5.47;;
2320;SDS011;15376;48.540;9.268;2023-04-29T04:22:50;8.43;;;6.90;;
2320;SDS011;15376;48.540;9.268;2023-04-29T04:25:15;7.10;;;6.47;;
2320;SDS011;15376;48.540;9.268;2023-04-29T04:27:41;7.30;;;6.63;;
2320;SDS011;15376;48.540;9.268;2023-04-29T04:30:06;13.37;;;7.13;;
2320;SDS011;15376;48.540;9.268;2023-04-29T04:32:32;6.80;;;6.10;;
2320;SDS011;15376;48.540;9.268;2023-04-29T04:34:57;10.90;;;7.00;;
2320;SDS011;15376;48.540;9.268;2023-04-29T04:37:23;8.50;;;7.70;;
2320;SDS011;15376;48.540;9.268;2023-04-29T04:39:48;8.00;;;7.10;;
2320;SDS011;15376;48.540;9.268;2023-04-29T04:42:13;8.10;;;7.30;;
2320;SDS011;15376;48.540;9.268;2023-04-29T04:44:39;7.00;;;6.40;;
2320;SDS011;15376;48.540;9.268;2023-04-29T04:47:04;7.73;;;7.03;;
2320;SDS011;15376;48.540;9.268;2023-04-29T04:49:30;7.03;;;6.43;;
2320;SDS011;15376;48.540;9.268;2023-04-29T04:51:55;6.30;;;5.60;;
2320;SDS011;15376;48.540;9.268;2023-04-29T04:54:21;8.87;;;7.97;;
2320;SDS011;15376;48.540;9.268;2023-04-29T04:56:46;7.43;;;6.30;;
2320;SDS011;15376;48.540;9.268;2023-04-29T04:59:12;14.30;;;8.23;;
2320;SDS011;15376;48.540;9.268;2023-04-29T05:01:38;7.30;;;6.70;;
2320;SDS011;15376;48.540;9.268;2023-04-29T05:04:03;8.50;;;7.77;;
2320;SDS011;15376;48.540;9.268;2023-04-29T05:06:28;7.57;;;6.93;;
2320;SDS011;15376;48.540;9.268;2023-04-29T05:08:54;7.90;;;7.10;;
2320;SDS011;15376;48.540;9.268;2023-04-29T05:11:20;8.10;;;7.43;;
2320;SDS011;15376;48.540;9.268;2023-04-29T05:13:46;7.57;;;6.97;;
2320;SDS011;15376;48.540;9.268;2023-04-29T05:16:12;13.93;;;6.43;;
2320;SDS011;15376;48.540;9.268;2023-04-29T05:18:37;9.40;;;8.60;;
2320;SDS011;15376;48.540;9.268;2023-04-29T05:21:03;7.30;;;6.67;;
2320;SDS011;15376;48.540;9.268;2023-04-29T05:23:28;10.90;;;10.00;;
2320;SDS011;15376;48.540;9.268;2023-04-29T05:25:54;6.60;;;6.00;;
2320;SDS011;15376;48.540;9.268;2023-04-29T05:28:19;8.97;;;7.90;;
2320;SDS011;15376;48.540;9.268;2023-04-29T05:30:45;10.57;;;9.60;;
2320;SDS011;15376;48.540;9.268;2023-04-29T05:33:11;7.87;;;7.30;;
2320;SDS011;15376;48.540;9.268;2023-04-29T05:35:36;11.03;;;9.93;;
2320;SDS011;15376;48.540;9.268;2023-04-29T05:38:02;10.73;;;9.83;;
2320;SDS011;15376;48.540;9.268;2023-04-29T05:40:27;8.60;;;7.90;;
2320;SDS011;15376;48.540;9.268;2023-04-29T05:42:53;8.30;;;7.70;;
2320;SDS011;15376;48.540;9.268;2023-04-29T05:45:18;7.27;;;6.77;;
2320;SDS011;15376;48.540;9.268;2023-04-29T05:47:44;10.40;;;6.77;;
2320;SDS011;15376;48.540;9.268;2023-04-29T05:50:09;7.53;;;6.60;;
2320;SDS011;15376;48.540;9.268;2023-04-29T05:52:35;8.03;;;7.30;;
2320;SDS011;15376;48.540;9.268;2023-04-29T05:55:01;7.60;;;7.00;;
2320;SDS011;15376;48.540;9.268;2023-04-29T05:57:26;7.50;;;6.80;;
2320;SDS011;15376;48.540;9.268;2023-04-29T05:59:51;8.40;;;7.57;;
2320;SDS011;15376;48.540;9.268;2023-04-29T06:02:19;7.67;;;7.07;;
2320;SDS011;15376;48.540;9.268;2023-04-29T06:04:44;7.23;;;6.60;;
2320;SDS011;15376;48.540;9.268;2023-04-29T06:07:12;6.63;;;6.10;;
2320;SDS011;15376;48.540;9.268;2023-04-29T06:09:38;7.20;;;6.60;;
2320;SDS011;15376;48.540;9.268;2023-04-29T06:12:03;7.20;;;6.50;;
2320;SDS011;15376;48.540;9.268;2023-04-29T06:14:29;6.40;;;5.90;;
2320;SDS011;15376;48.540;9.268;2023-04-29T06:16:55;7.70;;;7.00;;
2320;SDS011;15376;48.540;9.268;2023-04-29T06:19:20;6.50;;;6.00;;
2320;SDS011;15376;48.540;9.268;2023-04-29T06:21:46;6.10;;;5.60;;
2320;SDS011;15376;48.540;9.268;2023-04-29T06:24:11;6.30;;;5.80;;
2320;SDS011;15376;48.540;9.268;2023-04-29T06:26:37;5.37;;;4.87;;
2320;SDS011;15376;48.540;9.268;2023-04-29T06:29:02;5.43;;;5.03;;
2320;SDS011;15376;48.540;9.268;2023-04-29T06:31:28;5.23;;;4.83;;
2320;SDS011;15376;48.540;9.268;2023-04-29T06:33:53;4.70;;;4.40;;
2320;SDS011;15376;48.540;9.268;2023-04-29T06:36:19;4.70;;;4.30;;
2320;SDS011;15376;48.540;9.268;2023-04-29T06:38:44;7.27;;;4.57;;
2320;SDS011;15376;48.540;9.268;2023-04-29T06:41:10;7.00;;;6.50;;
2320;SDS011;15376;48.540;9.268;2023-04-29T06:43:35;9.93;;;7.53;;
2320;SDS011;15376;48.540;9.268;2023-04-29T06:46:01;6.73;;;6.10;;
2320;SDS011;15376;48.540;9.268;2023-04-29T06:48:26;7.93;;;7.20;;
2320;SDS011;15376;48.540;9.268;2023-04-29T06:50:52;29.67;;;21.87;;
2320;SDS011;15376;48.540;9.268;2023-04-29T06:53:20;11.33;;;7.87;;
2320;SDS011;15376;48.540;9.268;2023-04-29T06:55:46;3.30;;;3.00;;
2320;SDS011;15376;48.540;9.268;2023-04-29T06:58:12;3.40;;;3.20;;
2320;SDS011;15376;48.540;9.268;2023-04-29T07:00:38;4.00;;;3.10;;
2320;SDS011;15376;48.540;9.268;2023-04-29T07:03:03;3.23;;;3.03;;
2320;SDS011;15376;48.540;9.268;2023-04-29T07:05:29;3.67;;;3.37;;
2320;SDS011;15376;48.540;9.268;2023-04-29T07:07:54;6.07;;;3.33;;
2320;SDS011;15376;48.540;9.268;2023-04-29T07:10:20;3.20;;;3.00;;
2320;SDS011;15376;48.540;9.268;2023-04-29T07:12:45;2.87;;;2.67;;
2320;SDS011;15376;48.540;9.268;2023-04-29T07:15:10;3.13;;;2.93;;
2320;SDS011;15376;48.540;9.268;2023-04-29T07:17:36;3.07;;;2.87;;
2320;SDS011;15376;48.540;9.268;2023-04-29T07:20:01;3.93;;;2.67;;
2320;SDS011;15376;48.540;9.268;2023-04-29T07:22:28;5.20;;;2.83;;
2320;SDS011;15376;48.540;9.268;2023-04-29T07:24:53;2.60;;;2.40;;
2320;SDS011;15376;48.540;9.268;2023-04-29T07:27:19;2.70;;;2.50;;
2320;SDS011;15376;48.540;9.268;2023-04-29T07:29:45;2.83;;;2.30;;
2320;SDS011;15376;48.540;9.268;2023-04-29T07:32:10;3.07;;;2.80;;
2320;SDS011;15376;48.540;9.268;2023-04-29T07:34:35;2.80;;;2.60;;
2320;SDS011;15376;48.540;9.268;2023-04-29T07:37:01;2.37;;;2.20;;
2320;SDS011;15376;48.540;9.268;2023-04-29T07:39:26;2.40;;;2.30;;
2320;SDS011;15376;48.540;9.268;2023-04-29T07:41:53;2.47;;;2.37;;
2320;SDS011;15376;48.540;9.268;2023-04-29T07:44:18;6.63;;;2.10;;
2320;SDS011;15376;48.540;9.268;2023-04-29T07:46:43;2.50;;;2.30;;
2320;SDS011;15376;48.540;9.268;2023-04-29T07:49:09;8.53;;;2.40;;
2320;SDS011;15376;48.540;9.268;2023-04-29T07:51:34;2.40;;;1.97;;
2320;SDS011;15376;48.540;9.268;2023-04-29T07:54:00;2.33;;;2.13;;
2320;SDS011;15376;48.540;9.268;2023-04-29T07:56:25;3.00;;;2.13;;
2320;SDS011;15376;48.540;9.268;2023-04-29T07:58:51;2.17;;;2.00;;
2320;SDS011;15376;48.540;9.268;2023-04-29T08:01:16;2.10;;;2.00;;
2320;SDS011;15376;48.540;9.268;2023-04-29T08:03:41;2.10;;;2.00;;
2320;SDS011;15376;48.540;9.268;2023-04-29T08:06:07;2.70;;;1.93;;
2320;SDS011;15376;48.540;9.268;2023-04-29T08:08:32;2.27;;;1.93;;
2320;SDS011;15376;48.540;9.268;2023-04-29T08:10:57;2.47;;;2.27;;
2320;SDS011;15376;48.540;9.268;2023-04-29T08:13:23;13.57;;;12.20;;
2320;SDS011;15376;48.540;9.268;2023-04-29T08:15:49;3.50;;;3.20;;
2320;SDS011;15376;48.540;9.268;2023-04-29T08:18:14;2.20;;;2.00;;
2320;SDS011;15376;48.540;9.268;2023-04-29T08:20:40;2.77;;;2.50;;
2320;SDS011;15376;48.540;9.268;2023-04-29T08:23:05;2.77;;;2.57;;
2320;SDS011;15376;48.540;9.268;2023-04-29T08:25:31;3.77;;;2.93;;
2320;SDS011;15376;48.540;9.268;2023-04-29T08:27:56;2.43;;;2.33;;
2320;SDS011;15376;48.540;9.268;2023-04-29T08:30:22;3.00;;;2.47;;
2320;SDS011;15376;48.540;9.268;2023-04-29T08:32:47;2.20;;;2.10;;
2320;SDS011;15376;48.540;9.268;2023-04-29T08:35:13;2.60;;;2.40;;
2320;SDS011;15376;48.540;9.268;2023-04-29T08:37:39;2.37;;;2.17;;
2320;SDS011;15376;48.540;9.268;2023-04-29T08:40:04;2.80;;;2.20;;
2320;SDS011;15376;48.540;9.268;2023-04-29T08:42:34;2.57;;;2.37;;
2320;SDS011;15376;48.540;9.268;2023-04-29T08:45:01;1.90;;;1.80;;
2320;SDS011;15376;48.540;9.268;2023-04-29T08:47:32;2.20;;;2.00;;
2320;SDS011;15376;48.540;9.268;2023-04-29T08:50:02;1.57;;;1.47;;
2320;SDS011;15376;48.540;9.268;2023-04-29T08:52:32;2.27;;;1.80;;
2320;SDS011;15376;48.540;9.268;2023-04-29T08:55:00;2.10;;;2.00;;
2320;SDS011;15376;48.540;9.268;2023-04-29T08:57:29;2.03;;;1.67;;
2320;SDS011;15376;48.540;9.268;2023-04-29T09:00:03;3.80;;;1.97;;
2320;SDS011;15376;48.540;9.268;2023-04-29T09:02:34;1.60;;;1.50;;
2320;SDS011;15376;48.540;9.268;2023-04-29T09:05:08;1.70;;;1.60;;
2320;SDS011;15376;48.540;9.268;2023-04-29T09:07:35;2.10;;;1.90;;
2320;SDS011;15376;48.540;9.268;2023-04-29T09:10:05;2.73;;;2.17;;
2320;SDS011;15376;48.540;9.268;2023-04-29T09:12:32;5.10;;;1.87;;
2320;SDS011;15376;48.540;9.268;2023-04-29T09:14:58;2.67;;;1.70;;
2320;SDS011;15376;48.540;9.268;2023-04-29T09:25:17;1.40;;;1.30;;
2320;SDS011;15376;48.540;9.268;2023-04-29T09:27:43;1.87;;;1.77;;
2320;SDS011;15376;48.540;9.268;2023-04-29T09:30:09;2.17;;;1.43;;
2320;SDS011;15376;48.540;9.268;2023-04-29T09:32:36;1.40;;;1.30;;
2320;SDS011;15376;48.540;9.268;2023-04-29T09:37:45;1.90;;;1.80;;
2320;SDS011;15376;48.540;9.268;2023-04-29T09:40:26;1.40;;;1.30;;
2320;SDS011;15376;48.540;9.268;2023-04-29T09:42:55;2.80;;;1.67;;
2320;SDS011;15376;48.540;9.268;2023-04-29T09:45:34;1.73;;;1.63;;
2320;SDS011;15376;48.540;9.268;2023-04-29T09:48:04;1.53;;;1.43;;
2320;SDS011;15376;48.540;9.268;2023-04-29T09:50:31;2.27;;;2.07;;
2320;SDS011;15376;48.540;9.268;2023-04-29T09:52:57;2.10;;;1.50;;
2320;SDS011;15376;48.540;9.268;2023-04-29T09:55:24;2.03;;;1.60;;
2320;SDS011;15376;48.540;9.268;2023-04-29T09:57:50;1.60;;;1.50;;
2320;SDS011;15376;48.540;9.268;2023-04-29T10:00:16;2.13;;;1.40;;
2320;SDS011;15376;48.540;9.268;2023-04-29T10:02:42;1.50;;;1.40;;
2320;SDS011;15376;48.540;9.268;2023-04-29T10:05:16;2.77;;;1.90;;
2320;SDS011;15376;48.540;9.268;2023-04-29T10:07:43;1.60;;;1.50;;
2320;SDS011;15376;48.540;9.268;2023-04-29T10:10:11;1.73;;;1.60;;
2320;SDS011;15376;48.540;9.268;2023-04-29T10:12:39;1.80;;;1.70;;
2320;SDS011;15376;48.540;9.268;2023-04-29T10:17:45;2.53;;;1.60;;
2320;SDS011;15376;48.540;9.268;2023-04-29T10:20:14;1.60;;;1.50;;
2320;SDS011;15376;48.540;9.268;2023-04-29T10:22:47;1.50;;;1.40;;
2320;SDS011;15376;48.540;9.268;2023-04-29T10:25:17;1.90;;;1.50;;
2320;SDS011;15376;48.540;9.268;2023-04-29T10:27:45;1.50;;;1.40;;
2320;SDS011;15376;48.540;9.268;2023-04-29T10:30:16;1.67;;;1.10;;
2320;SDS011;15376;48.540;9.268;2023-04-29T10:32:42;2.40;;;2.20;;
2320;SDS011;15376;48.540;9.268;2023-04-29T10:35:09;1.93;;;1.73;;
2320;SDS011;15376;48.540;9.268;2023-04-29T10:37:37;4.43;;;2.00;;
2320;SDS011;15376;48.540;9.268;2023-04-29T10:50:29;2.60;;;2.40;;
2320;SDS011;15376;48.540;9.268;2023-04-29T10:52:55;4.57;;;2.30;;
2320;SDS011;15376;48.540;9.268;2023-04-29T10:55:22;3.03;;;2.70;;
2320;SDS011;15376;48.540;9.268;2023-04-29T10:57:47;2.60;;;2.40;;
2320;SDS011;15376;48.540;9.268;2023-04-29T11:00:25;3.80;;;2.40;;
2320;SDS011;15376;48.540;9.268;2023-04-29T11:02:52;3.43;;;2.27;;
2320;SDS011;15376;48.540;9.268;2023-04-29T11:05:30;2.50;;;2.30;;
2320;SDS011;15376;48.540;9.268;2023-04-29T11:08:08;1.80;;;1.70;;
2320;SDS011;15376;48.540;9.268;2023-04-29T11:10:40;2.00;;;1.90;;
2320;SDS011;15376;48.540;9.268;2023-04-29T11:13:29;1.80;;;1.70;;
2320;SDS011;15376;48.540;9.268;2023-04-29T11:18:31;2.40;;;2.27;;
2320;SDS011;15376;48.540;9.268;2023-04-29T11:23:35;2.77;;;2.57;;
2320;SDS011;15376;48.540;9.268;2023-04-29T11:26:01;2.50;;;2.30;;
2320;SDS011;15376;48.540;9.268;2023-04-29T11:28:27;4.37;;;3.97;;
2320;SDS011;15376;48.540;9.268;2023-04-29T11:30:55;7.40;;;5.47;;
2320;SDS011;15376;48.540;9.268;2023-04-29T11:33:21;5.40;;;4.90;;
2320;SDS011;15376;48.540;9.268;2023-04-29T11:35:51;3.90;;;3.60;;
2320;SDS011;15376;48.540;9.268;2023-04-29T11:38:17;6.90;;;4.33;;
2320;SDS011;15376;48.540;9.268;2023-04-29T11:40:49;4.23;;;3.93;;
2320;SDS011;15376;48.540;9.268;2023-04-29T11:43:18;3.20;;;3.00;;
2320;SDS011;15376;48.540;9.268;2023-04-29T11:45:47;2.70;;;2.50;;
2320;SDS011;15376;48.540;9.268;2023-04-29T11:50:51;2.90;;;2.00;;
2320;SDS011;15376;48.540;9.268;2023-04-29T11:53:19;2.50;;;1.90;;
2320;SDS011;15376;48.540;9.268;2023-04-29T11:55:46;3.70;;;2.20;;
2320;SDS011;15376;48.540;9.268;2023-04-29T11:58:13;2.17;;;2.00;;
2320;SDS011;15376;48.540;9.268;2023-04-29T12:00:39;2.47;;;2.27;;
2320;SDS011;15376;48.540;9.268;2023-04-29T12:03:18;2.60;;;2.40;;
2320;SDS011;15376;48.540;9.268;2023-04-29T12:05:46;2.67;;;2.47;;
2320;SDS011;15376;48.540;9.268;2023-04-29T12:08:13;2.90;;;2.20;;
2320;SDS011;15376;48.540;9.268;2023-04-29T12:10:38;2.80;;;2.60;;
2320;SDS011;15376;48.540;9.268;2023-04-29T12:13:05;3.23;;;3.03;;
2320;SDS011;15376;48.540;9.268;2023-04-29T12:15:30;2.70;;;2.50;;
2320;SDS011;15376;48.540;9.268;2023-04-29T12:17:56;3.07;;;2.80;;
2320;SDS011;15376;48.540;9.268;2023-04-29T12:20:22;5.73;;;5.23;;
2320;SDS011;15376;48.540;9.268;2023-04-29T12:22:48;3.23;;;2.97;;
2320;SDS011;15376;48.540;9.268;2023-04-29T12:25:13;2.70;;;2.10;;
2320;SDS011;15376;48.540;9.268;2023-04-29T12:27:39;2.03;;;1.93;;
2320;SDS011;15376;48.540;9.268;2023-04-29T12:30:08;2.87;;;2.67;;
2320;SDS011;15376;48.540;9.268;2023-04-29T12:32:34;2.67;;;2.33;;
2320;SDS011;15376;48.540;9.268;2023-04-29T12:35:00;2.93;;;2.40;;
2320;SDS011;15376;48.540;9.268;2023-04-29T12:37:26;2.40;;;2.20;;
2320;SDS011;15376;48.540;9.268;2023-04-29T12:39:53;2.20;;;2.10;;
2320;SDS011;15376;48.540;9.268;2023-04-29T12:42:19;2.57;;;2.37;;
2320;SDS011;15376;48.540;9.268;2023-04-29T12:44:45;2.80;;;2.60;;
2320;SDS011;15376;48.540;9.268;2023-04-29T12:47:13;3.43;;;3.13;;
2320;SDS011;15376;48.540;9.268;2023-04-29T12:49:40;2.60;;;2.40;;
2320;SDS011;15376;48.540;9.268;2023-04-29T12:52:07;3.20;;;2.47;;
2320;SDS011;15376;48.540;9.268;2023-04-29T12:54:34;2.20;;;2.10;;
2320;SDS011;15376;48.540;9.268;2023-04-29T12:57:00;6.40;;;2.43;;
2320;SDS011;15376;48.540;9.268;2023-04-29T12:59:27;3.13;;;2.10;;
2320;SDS011;15376;48.540;9.268;2023-04-29T13:01:52;2.43;;;2.23;;
2320;SDS011;15376;48.540;9.268;2023-04-29T13:04:17;2.73;;;2.50;;
2320;SDS011;15376;48.540;9.268;2023-04-29T13:06:43;2.63;;;2.00;;
2320;SDS011;15376;48.540;9.268;2023-04-29T13:09:08;2.60;;;2.27;;
2320;SDS011;15376;48.540;9.268;2023-04-29T13:11:36;3.00;;;2.80;;
2320;SDS011;15376;48.540;9.268;2023-04-29T13:14:04;3.10;;;2.90;;
2320;SDS011;15376;48.540;9.268;2023-04-29T13:16:33;3.03;;;2.73;;
2320;SDS011;15376;48.540;9.268;2023-04-29T13:18:59;2.97;;;2.77;;
2320;SDS011;15376;48.540;9.268;2023-04-29T13:21:25;2.80;;;2.60;;
2320;SDS011;15376;48.540;9.268;2023-04-29T13:23:52;4.17;;;3.53;;
2320;SDS011;15376;48.540;9.268;2023-04-29T13:26:17;6.07;;;5.10;;
2320;SDS011;15376;48.540;9.268;2023-04-29T13:28:43;5.77;;;5.23;;
2320;SDS011;15376;48.540;9.268;2023-04-29T13:31:08;4.63;;;4.33;;
2320;SDS011;15376;48.540;9.268;2023-04-29T13:33:33;4.67;;;4.20;;
2320;SDS011;15376;48.540;9.268;2023-04-29T13:35:59;4.37;;;4.07;;
2320;SDS011;15376;48.540;9.268;2023-04-29T13:38:24;4.33;;;4.03;;
2320;SDS011;15376;48.540;9.268;2023-04-29T13:40:50;6.97;;;4.33;;
2320;SDS011;15376;48.540;9.268;2023-04-29T13:43:15;4.93;;;4.53;;
2320;SDS011;15376;48.540;9.268;2023-04-29T13:45:41;4.90;;;4.50;;
2320;SDS011;15376;48.540;9.268;2023-04-29T13:48:06;10.33;;;4.53;;
2320;SDS011;15376;48.540;9.268;2023-04-29T13:50:32;5.30;;;4.67;;
2320;SDS011;15376;48.540;9.268;2023-04-29T13:52:58;4.70;;;4.20;;
2320;SDS011;15376;48.540;9.268;2023-04-29T13:55:23;6.30;;;4.80;;
2320;SDS011;15376;48.540;9.268;2023-04-29T13:57:48;5.07;;;4.67;;
2320;SDS011;15376;48.540;9.268;2023-04-29T14:00:14;4.67;;;4.37;;
2320;SDS011;15376;48.540;9.268;2023-04-29T14:02:40;6.03;;;4.30;;
2320;SDS011;15376;48.540;9.268;2023-04-29T14:05:06;4.80;;;4.40;;
2320;SDS011;15376;48.540;9.268;2023-04-29T14:07:31;4.70;;;4.30;;
2320;SDS011;15376;48.540;9.268;2023-04-29T14:09:56;5.13;;;4.73;;
2320;SDS011;15376;48.540;9.268;2023-04-29T14:12:22;5.50;;;5.00;;
2320;SDS011;15376;48.540;9.268;2023-04-29T14:14:47;4.70;;;4.30;;
2320;SDS011;15376;48.540;9.268;2023-04-29T14:17:13;4.10;;;3.80;;
2320;SDS011;15376;48.540;9.268;2023-04-29T14:19:38;5.13;;;4.63;;
2320;SDS011;15376;48.540;9.268;2023-04-29T14:22:04;5.27;;;4.40;;
2320;SDS011;15376;48.540;9.268;2023-04-29T14:24:29;4.83;;;4.33;;
2320;SDS011;15376;48.540;9.268;2023-04-29T14:26:55;5.07;;;4.67;;
2320;SDS011;15376;48.540;9.268;2023-04-29T14:29:21;5.17;;;4.67;;
2320;SDS011;15376;48.540;9.268;2023-04-29T14:31:47;5.93;;;5.13;;
2320;SDS011;15376;48.540;9.268;2023-04-29T14:34:13;5.80;;;5.20;;
2320;SDS011;15376;48.540;9.268;2023-04-29T14:36:38;4.77;;;4.37;;
2320;SDS011;15376;48.540;9.268;2023-04-29T14:39:04;5.10;;;4.60;;
2320;SDS011;15376;48.540;9.268;2023-04-29T14:41:30;5.53;;;4.93;;
2320;SDS011;15376;48.540;9.268;2023-04-29T14:43:55;5.70;;;5.30;;
2320;SDS011;15376;48.540;9.268;2023-04-29T14:46:20;5.30;;;4.80;;
2320;SDS011;15376;48.540;9.268;2023-04-29T14:48:46;5.77;;;5.17;;
2320;SDS011;15376;48.540;9.268;2023-04-29T14:51:12;5.90;;;5.40;;
2320;SDS011;15376;48.540;9.268;2023-04-29T14:53:37;6.37;;;5.03;;
2320;SDS011;15376;48.540;9.268;2023-04-29T14:56:03;5.40;;;4.90;;
2320;SDS011;15376;48.540;9.268;2023-04-29T14:58:28;5.80;;;5.33;;
2320;SDS011;15376;48.540;9.268;2023-04-29T15:00:54;5.57;;;5.07;;
2320;SDS011;15376;48.540;9.268;2023-04-29T15:03:20;7.70;;;5.97;;
2320;SDS011;15376;48.540;9.268;2023-04-29T15:05:46;5.90;;;5.40;;
2320;SDS011;15376;48.540;9.268;2023-04-29T15:08:12;5.20;;;4.70;;
2320;SDS011;15376;48.540;9.268;2023-04-29T15:10:37;6.50;;;6.00;;
2320;SDS011;15376;48.540;9.268;2023-04-29T15:13:02;5.77;;;5.27;;
2320;SDS011;15376;48.540;9.268;2023-04-29T15:15:28;5.10;;;4.60;;
2320;SDS011;15376;48.540;9.268;2023-04-29T15:17:53;5.77;;;5.30;;
2320;SDS011;15376;48.540;9.268;2023-04-29T15:20:19;5.10;;;4.70;;
2320;SDS011;15376;48.540;9.268;2023-04-29T15:22:45;5.67;;;5.17;;
2320;SDS011;15376;48.540;9.268;2023-04-29T15:25:11;9.80;;;6.27;;
2320;SDS011;15376;48.540;9.268;2023-04-29T15:27:36;5.87;;;5.37;;
2320;SDS011;15376;48.540;9.268;2023-04-29T15:30:03;6.87;;;5.93;;
2320;SDS011;15376;48.540;9.268;2023-04-29T15:32:29;6.60;;;6.00;;
2320;SDS011;15376;48.540;9.268;2023-04-29T15:34:57;6.77;;;6.17;;